Time;durP1;ratioP1;P1;durP2;ratioP2;P2;SDS_P1;SDS_P2;PMS_P1;PMS_P2;Temp;Humidity;BMP_temperature;BMP_pressure;BME280_temperature;BME280_humidity;BME280_pressure;Samples;Min_cycle;Max_cycle;Signal;HPM_P1;HPM_P2
2022/12/11 00:00:44;;;;;;;38.45;26.93;;;;;;;6.79;69.57;99374.51;1711556;82;21019;-70
2022/12/11 00:03:11;;;;;;;41.63;29.40;;;;;;;6.85;69.52;99372.67;1732142;81;20961;-70
2022/12/11 00:05:39;;;;;;;35.50;25.35;;;;;;;6.86;69.46;99355.69;1728847;81;21193;-70
2022/12/11 00:08:05;;;;;;;38.40;25.10;;;;;;;6.88;69.34;99354.37;1730259;82;21445;-70
2022/12/11 00:10:33;;;;;;;33.80;22.85;;;;;;;6.81;69.09;99361.25;1715596;82;21233;-70
2022/12/11 00:13:00;;;;;;;31.00;21.95;;;;;;;6.76;69.06;99351.94;1754861;81;20955;-70
2022/12/11 00:15:27;;;;;;;34.18;22.98;;;;;;;6.79;69.07;99356.72;1730459;82;21046;-71
2022/12/11 00:17:54;;;;;;;35.50;22.73;;;;;;;6.80;68.97;99351.67;1754930;81;21035;-71
2022/12/11 00:20:21;;;;;;;39.13;23.02;;;;;;;6.80;68.94;99361.50;1730552;82;20975;-69
2022/12/11 00:22:48;;;;;;;40.63;23.60;;;;;;;6.78;68.92;99360.98;1710781;83;21178;-70
2022/12/11 00:25:15;;;;;;;32.45;21.85;;;;;;;6.75;68.99;99354.33;1718785;81;21023;-69
2022/12/11 00:27:41;;;;;;;34.27;23.02;;;;;;;6.73;69.03;99347.15;1744718;80;20966;-71
2022/12/11 00:30:10;;;;;;;37.65;23.80;;;;;;;6.75;69.06;99349.56;1762347;80;21003;-70
2022/12/11 00:32:37;;;;;;;38.55;23.70;;;;;;;6.79;69.19;99343.98;1709066;81;21560;-70
2022/12/11 00:35:05;;;;;;;47.00;25.92;;;;;;;6.86;69.33;99345.86;1749816;80;21209;-69
2022/12/11 00:37:31;;;;;;;33.33;23.30;;;;;;;6.93;69.37;99339.77;1762979;80;21025;-70
2022/12/11 00:39:58;;;;;;;30.25;21.77;;;;;;;6.98;69.29;99342.98;1766948;80;21516;-70
2022/12/11 00:42:24;;;;;;;30.77;21.93;;;;;;;7.00;69.13;99347.48;1753858;80;20955;-70
2022/12/11 00:44:52;;;;;;;32.70;21.42;;;;;;;6.96;68.84;99346.41;1767574;81;21053;-69
2022/12/11 00:47:19;;;;;;;31.27;21.25;;;;;;;6.92;68.75;99340.84;1767626;80;21098;-71
2022/12/11 00:49:45;;;;;;;33.48;20.77;;;;;;;6.90;68.72;99333.65;1766083;80;21024;-70
2022/12/11 00:52:11;;;;;;;28.25;19.05;;;;;;;6.90;68.68;99327.55;1762466;80;20993;-70
2022/12/11 00:54:38;;;;;;;26.12;18.48;;;;;;;6.88;68.63;99313.23;1735346;80;21050;-70
2022/12/11 00:57:04;;;;;;;43.98;20.48;;;;;;;6.83;68.53;99320.38;1760046;80;21464;-70
2022/12/11 00:59:32;;;;;;;27.77;18.20;;;;;;;6.72;68.56;99332.30;1759228;80;21784;-70
2022/12/11 01:01:58;;;;;;;29.00;17.45;;;;;;;6.66;68.69;99330.68;1765354;80;21029;-70
2022/12/11 01:04:25;;;;;;;25.60;17.20;;;;;;;6.46;69.38;99338.58;1744085;80;20947;-70
2022/12/11 01:06:51;;;;;;;25.75;16.60;;;;;;;6.30;69.85;99350.97;1753314;80;21098;-70
2022/12/11 01:12:04;;;;;;;33.50;19.92;;;;;;;6.20;70.47;99375.58;1749648;81;22160;-69
2022/12/11 01:14:31;;;;;;;29.48;21.07;;;;;;;6.18;70.79;99363.09;1733193;82;21063;-69
2022/12/11 01:16:57;;;;;;;35.83;22.82;;;;;;;6.22;71.05;99360.22;1704495;84;21062;-69
2022/12/11 01:19:26;;;;;;;40.65;24.07;;;;;;;6.24;71.15;99360.73;1718255;82;21544;-70
2022/12/11 01:21:52;;;;;;;47.05;25.30;;;;;;;6.28;71.26;99353.06;1715636;81;21568;-70
2022/12/11 01:24:19;;;;;;;49.38;27.15;;;;;;;6.33;71.32;99355.75;1735568;80;21785;-70
2022/12/11 01:26:45;;;;;;;34.20;22.07;;;;;;;6.38;71.34;99356.30;1722863;80;21007;-70
2022/12/11 01:29:11;;;;;;;37.15;23.83;;;;;;;6.39;71.35;99346.77;1750653;80;21017;-70
2022/12/11 01:31:38;;;;;;;51.92;26.82;;;;;;;6.41;71.39;99343.84;1766110;80;21037;-69
2022/12/11 01:34:04;;;;;;;57.03;28.60;;;;;;;6.40;71.36;99338.28;1732627;81;21024;-71
2022/12/11 01:36:31;;;;;;;51.75;29.52;;;;;;;6.39;71.40;99336.16;1723101;82;21154;-70
2022/12/11 01:38:58;;;;;;;48.10;29.67;;;;;;;6.42;71.20;99334.85;1738813;81;21448;-70
2022/12/11 01:41:24;;;;;;;62.80;32.17;;;;;;;6.38;71.28;99334.55;1737990;81;20985;-70
2022/12/11 01:43:59;;;;;;;56.20;34.20;;;;;;;6.63;70.67;99331.20;1737345;81;21080;-69
2022/12/11 01:46:26;;;;;;;64.77;35.63;;;;;;;6.68;70.43;99328.58;1732560;81;21063;-69
2022/12/11 01:48:53;;;;;;;51.75;34.10;;;;;;;6.69;70.29;99320.88;1755050;81;21099;-69
2022/12/11 01:51:20;;;;;;;51.88;33.70;;;;;;;6.71;70.23;99310.81;1732642;81;21021;-69
2022/12/11 01:53:52;;;;;;;52.88;33.20;;;;;;;6.68;70.07;99305.20;1710445;82;21045;-71
2022/12/11 01:56:18;;;;;;;57.65;32.80;;;;;;;6.61;70.04;99314.73;1724673;81;21592;-70
2022/12/11 01:58:55;;;;;;;61.65;32.38;;;;;;;6.57;70.08;99314.99;1741082;82;21531;-70
2022/12/11 02:01:39;;;;;;;44.55;29.75;;;;;;;6.54;70.15;99309.67;1743221;82;21355;-71
2022/12/11 02:04:07;;;;;;;37.88;27.20;;;;;;;6.53;70.21;99312.60;1733439;81;21113;-70
2022/12/11 02:06:46;;;;;;;39.20;27.85;;;;;;;6.55;70.18;99303.33;1725201;80;21015;-70
2022/12/11 02:09:17;;;;;;;49.00;28.65;;;;;;;6.50;70.23;99293.22;1735971;80;21531;-69
2022/12/11 02:12:10;;;;;;;48.68;30.35;;;;;;;6.46;70.37;99292.16;1767408;80;21028;-71
2022/12/11 02:14:54;;;;;;;37.28;24.92;;;;;;;6.43;70.48;99290.02;1697177;84;21324;-70
2022/12/11 02:17:28;;;;;;;40.70;27.90;;;;;;;6.45;70.62;99274.12;1722253;83;21120;-70
2022/12/11 02:20:24;;;;;;;39.73;27.70;;;;;;;6.45;70.54;99270.14;1723497;83;21002;-71
2022/12/11 02:23:22;;;;;;;52.40;30.80;;;;;;;6.38;70.52;99251.53;1728248;82;21065;-70
2022/12/11 02:26:22;;;;;;;37.80;25.23;;;;;;;6.26;70.58;99251.25;1746470;82;21514;-69
2022/12/11 02:28:58;;;;;;;40.75;27.27;;;;;;;6.17;70.78;99242.20;1741729;82;21069;-69
2022/12/11 02:31:38;;;;;;;38.85;26.35;;;;;;;6.08;71.01;99232.61;1743592;80;21124;-70
2022/12/11 02:34:36;;;;;;;37.70;24.50;;;;;;;6.10;71.21;99217.78;1725816;82;22376;-71
2022/12/11 02:37:07;;;;;;;36.40;24.30;;;;;;;6.14;71.34;99216.20;1735067;81;21005;-70
2022/12/11 06:27:28;;;;;;;9.93;8.40;;;;;;;6.77;91.75;99003.23;1808498;77;23247;-71
2022/12/11 07:22:04;;;;;;;9.23;7.93;;;;;;;7.37;91.07;98920.13;1799889;79;22446;-71
2022/12/11 07:24:31;;;;;;;9.55;8.00;;;;;;;7.52;89.80;98917.38;1766397;81;21011;-68
2022/12/11 07:26:58;;;;;;;10.95;8.53;;;;;;;7.42;89.59;98913.47;1764932;81;21241;-70
2022/12/11 07:29:26;;;;;;;10.78;7.87;;;;;;;7.34;89.74;98902.09;1758543;80;21014;-71
2022/12/11 07:31:53;;;;;;;9.28;7.75;;;;;;;7.60;88.59;98890.23;1766599;80;20892;-71
2022/12/11 07:34:21;;;;;;;9.98;8.18;;;;;;;7.42;89.04;98892.22;1766473;80;21526;-69
2022/12/11 07:36:48;;;;;;;10.13;8.48;;;;;;;7.41;88.94;98878.69;1766506;81;20912;-69
2022/12/11 07:39:14;;;;;;;10.78;8.93;;;;;;;7.50;88.75;98880.48;1748303;81;21197;-69
2022/12/11 07:41:43;;;;;;;9.75;8.50;;;;;;;7.68;88.02;98885.64;1735863;82;20963;-70
2022/12/11 07:44:10;;;;;;;9.20;7.78;;;;;;;7.81;87.12;98875.45;1736955;81;20947;-71
2022/12/11 07:46:37;;;;;;;9.80;8.08;;;;;;;7.89;86.66;98874.83;1761825;81;21003;-69
2022/12/11 07:49:05;;;;;;;10.23;8.50;;;;;;;7.92;86.28;98871.06;1763404;81;21046;-69
2022/12/11 07:51:37;;;;;;;9.88;8.08;;;;;;;7.98;86.04;98871.82;1766233;80;22060;-70
2022/12/11 07:54:08;;;;;;;10.13;8.38;;;;;;;8.02;85.76;98873.37;1766595;80;21490;-69
2022/12/11 07:56:35;;;;;;;;;;;;;;;8.07;85.65;98870.14;1762568;81;21050;-69
2022/12/11 07:59:03;;;;;;;11.18;8.83;;;;;;;8.14;85.56;98873.25;1766615;81;20196;-69
2022/12/11 08:01:34;;;;;;;9.53;8.13;;;;;;;8.20;85.48;98876.12;1765098;81;21454;-70
2022/12/11 08:04:02;;;;;;;9.50;7.90;;;;;;;8.26;85.36;98869.41;1766652;81;21212;-70
2022/12/11 08:06:31;;;;;;;8.48;7.45;;;;;;;8.35;84.94;98857.07;1759335;81;21431;-71
2022/12/11 08:08:58;;;;;;;9.70;7.87;;;;;;;8.14;85.65;98852.52;1766660;80;20952;-69
2022/12/11 08:11:24;;;;;;;10.80;8.10;;;;;;;8.07;86.03;98852.07;1766214;81;21047;-70
2022/12/11 08:13:51;;;;;;;10.58;8.78;;;;;;;8.09;85.88;98838.73;1764544;80;21046;-70
2022/12/11 08:16:18;;;;;;;9.55;7.55;;;;;;;8.04;86.15;98833.48;1787650;80;21787;-70
2022/12/11 08:18:45;;;;;;;10.13;8.30;;;;;;;8.09;86.22;98836.06;1789533;80;20990;-71
2022/12/11 08:21:16;;;;;;;8.83;7.45;;;;;;;8.11;86.23;98829.94;1747740;81;20996;-69
2022/12/11 08:23:43;;;;;;;11.33;8.83;;;;;;;8.12;86.12;98820.88;1754528;80;21002;-70
2022/12/11 08:26:24;;;;;;;9.75;8.05;;;;;;;8.15;86.07;98820.86;1781644;80;21186;-69
2022/12/11 08:28:51;;;;;;;9.48;7.70;;;;;;;8.15;86.08;98810.22;1781917;80;21121;-71
2022/12/11 08:31:17;;;;;;;9.88;8.53;;;;;;;8.18;86.05;98806.99;1781562;80;21397;-69
2022/12/11 08:33:44;;;;;;;9.50;7.72;;;;;;;8.19;86.07;98806.73;1774573;80;21040;-69
2022/12/11 08:36:14;;;;;;;11.10;9.53;;;;;;;8.20;86.06;98798.99;1779916;80;21033;-69
2022/12/11 08:38:40;;;;;;;10.03;8.50;;;;;;;8.20;85.98;98793.67;1781652;80;21065;-71
2022/12/11 08:41:12;;;;;;;9.83;7.92;;;;;;;8.33;85.84;98787.41;1779148;80;21040;-70
2022/12/11 08:43:38;;;;;;;10.50;8.48;;;;;;;8.59;84.73;98784.70;1765206;81;20955;-69
2022/12/11 08:46:05;;;;;;;10.05;8.08;;;;;;;8.65;84.25;98776.91;1770241;81;21015;-71
2022/12/11 08:48:37;;;;;;;9.30;7.75;;;;;;;8.68;84.00;98772.86;1770819;81;21510;-70
2022/12/11 08:51:08;;;;;;;9.35;7.45;;;;;;;8.68;83.79;98765.66;1765910;81;21011;-71
2022/12/11 08:53:35;;;;;;;8.55;7.40;;;;;;;8.71;83.64;98762.18;1769946;81;21112;-70
2022/12/11 08:56:10;;;;;;;7.90;6.67;;;;;;;8.75;83.58;98758.64;1770236;81;21257;-69
2022/12/11 08:58:36;;;;;;;8.08;6.50;;;;;;;8.77;83.46;98752.50;1770707;81;21548;-69
2022/12/11 09:01:08;;;;;;;8.43;6.78;;;;;;;8.79;83.35;98746.36;1766938;81;20987;-68
2022/12/11 09:03:36;;;;;;;8.00;6.58;;;;;;;8.80;83.32;98739.95;1750004;81;21492;-69
2022/12/11 09:06:06;;;;;;;7.67;6.67;;;;;;;8.83;83.25;98739.38;1739895;82;21129;-69
2022/12/11 09:08:32;;;;;;;8.45;6.40;;;;;;;8.88;83.26;98729.17;1741723;81;20991;-70
2022/12/11 09:11:06;;;;;;;8.48;7.20;;;;;;;8.91;83.24;98721.94;1768686;81;20987;-69
2022/12/11 09:13:33;;;;;;;8.18;7.22;;;;;;;8.93;83.21;98722.45;1769711;81;21058;-69
2022/12/11 09:16:00;;;;;;;10.18;7.10;;;;;;;8.95;83.21;98714.16;1770527;81;21422;-70
2022/12/11 09:18:26;;;;;;;8.63;6.72;;;;;;;8.96;83.16;98717.09;1762451;81;21196;-69
2022/12/11 09:21:03;;;;;;;8.00;6.90;;;;;;;8.99;83.11;98705.86;1739809;82;21023;-69
2022/12/11 09:23:29;;;;;;;8.18;7.12;;;;;;;8.98;83.10;98701.59;1712952;82;21074;-70
2022/12/11 09:25:56;;;;;;;8.95;7.37;;;;;;;8.99;83.09;98692.00;1750648;81;21062;-69
2022/12/11 09:28:23;;;;;;;9.45;8.10;;;;;;;8.71;84.19;98687.66;1764422;81;20994;-68
2022/12/11 09:30:50;;;;;;;8.93;7.65;;;;;;;8.67;84.55;98689.56;1770357;81;21148;-71
2022/12/11 09:33:16;;;;;;;9.63;7.60;;;;;;;8.68;84.77;98684.48;1768353;81;21529;-71
2022/12/11 09:35:43;;;;;;;9.78;8.00;;;;;;;8.71;84.93;98677.80;1741410;81;20986;-71
2022/12/11 09:38:10;;;;;;;8.68;7.78;;;;;;;8.91;84.25;98670.80;1765656;81;21037;-70
2022/12/11 09:40:41;;;;;;;9.75;7.97;;;;;;;8.80;84.81;98664.63;1770461;81;21073;-70
2022/12/11 09:43:28;;;;;;;10.18;8.65;;;;;;;8.81;84.95;98651.55;1769932;81;21781;-69
2022/12/11 09:45:55;;;;;;;10.90;8.23;;;;;;;8.81;85.05;98644.91;1761776;81;20987;-70
2022/12/11 09:48:23;;;;;;;9.88;8.05;;;;;;;9.19;84.12;98640.80;1770959;81;21011;-70
2022/12/11 09:50:52;;;;;;;9.70;7.47;;;;;;;9.29;83.88;98640.61;1741940;81;21003;-70
2022/12/11 09:53:29;;;;;;;11.45;8.05;;;;;;;9.40;83.84;98637.98;1770707;81;21007;-69
2022/12/11 09:56:10;;;;;;;10.38;8.48;;;;;;;9.50;83.92;98631.67;1748207;81;21778;-69
2022/12/11 09:59:03;;;;;;;9.08;7.42;;;;;;;9.44;84.51;98626.98;1740194;82;21163;-71
2022/12/11 10:02:01;;;;;;;8.95;7.45;;;;;;;9.43;85.47;98612.08;1769740;81;21430;-71
2022/12/11 10:04:54;;;;;;;8.55;6.95;;;;;;;9.55;85.99;98612.92;1727151;81;20986;-71
2022/12/11 10:07:35;;;;;;;9.00;7.22;;;;;;;9.67;86.25;98595.87;1763936;81;20994;-69
2022/12/11 10:10:22;;;;;;;9.23;7.78;;;;;;;9.78;86.47;98591.91;1770654;81;21525;-69
2022/12/11 10:13:26;;;;;;;8.20;6.62;;;;;;;9.87;86.61;98582.64;1764183;81;21556;-71
2022/12/11 10:16:01;;;;;;;9.45;7.22;;;;;;;9.96;86.64;98576.06;1739871;82;21561;-71
2022/12/11 10:18:27;;;;;;;10.18;7.85;;;;;;;10.17;86.13;98565.70;1769819;81;20983;-70
2022/12/11 10:20:55;;;;;;;8.15;6.90;;;;;;;10.27;85.88;98562.30;1770213;81;21536;-70
2022/12/11 10:23:34;;;;;;;8.73;7.60;;;;;;;10.34;85.75;98561.88;1746051;81;21766;-70
2022/12/11 10:26:05;;;;;;;10.25;7.75;;;;;;;10.40;85.59;98549.99;1739395;82;21059;-69
2022/12/11 10:28:33;;;;;;;10.43;7.40;;;;;;;10.46;85.45;98543.44;1740183;82;21062;-69
2022/12/11 10:31:21;;;;;;;9.30;7.30;;;;;;;10.51;85.38;98539.84;1745782;81;21588;-70
2022/12/11 12:52:34;;;;;;;7.40;5.20;;;;;;;12.69;96.58;98308.70;1776169;79;22778;-67
2022/12/11 12:55:27;;;;;;;6.80;4.80;;;;;;;12.68;95.73;98319.20;1759212;81;21005;-70
2022/12/11 12:58:05;;;;;;;5.47;4.18;;;;;;;12.70;95.21;98312.98;1739762;80;10000284;-70
2022/12/11 13:00:39;;;;;;;6.40;4.33;;;;;;;12.70;95.01;98314.31;1634741;80;9999874;-70
2022/12/11 13:03:25;;;;;;;8.13;4.20;;;;;;;12.72;94.65;98308.06;1749234;81;20975;-72
2022/12/11 13:06:08;;;;;;;5.27;4.40;;;;;;;12.76;94.14;98309.53;1757462;81;21281;-71
2022/12/11 13:08:47;;;;;;;5.73;3.97;;;;;;;12.80;93.42;98301.87;1757374;80;21280;-71
2022/12/11 13:11:16;;;;;;;4.80;3.83;;;;;;;12.85;92.94;98297.64;1757121;81;21209;-69
2022/12/11 13:13:51;;;;;;;5.53;4.07;;;;;;;12.89;92.59;98300.45;1757489;81;21757;-70
2022/12/11 13:16:23;;;;;;;6.50;3.83;;;;;;;13.00;91.84;98292.83;1694536;81;21807;-69
2022/12/11 13:18:49;;;;;;;;;;;;;;;12.96;91.70;98298.58;1752740;81;21277;-70
2022/12/11 13:21:35;;;;;;;6.33;3.90;;;;;;;13.00;91.37;98291.48;1756803;81;20182;-71
2022/12/11 13:24:24;;;;;;;5.23;3.77;;;;;;;13.01;90.99;98294.37;1748330;81;21956;-70
2022/12/11 13:26:51;;;;;;;6.73;4.10;;;;;;;12.98;90.52;98280.30;1756725;80;21328;-72
2022/12/11 13:29:40;;;;;;;6.53;3.80;;;;;;;12.99;90.20;98277.83;1757241;81;21818;-70
2022/12/11 13:32:22;;;;;;;5.93;3.53;;;;;;;13.01;89.95;98280.98;1742420;80;21280;-70
2022/12/11 13:34:57;;;;;;;5.37;3.90;;;;;;;13.01;89.71;98272.38;1735682;81;21402;-71
2022/12/11 13:37:32;;;;;;;5.87;3.80;;;;;;;13.03;89.54;98274.72;1756146;80;21432;-69
2022/12/11 13:40:03;;;;;;;5.17;3.50;;;;;;;13.06;89.40;98267.36;1766621;80;21893;-71
2022/12/11 13:42:39;;;;;;;5.60;3.67;;;;;;;13.09;89.19;98263.47;1743899;80;21877;-71
2022/12/11 13:45:07;;;;;;;5.87;3.77;;;;;;;13.10;88.85;98263.72;1714201;82;21276;-71
2022/12/11 13:47:33;;;;;;;4.87;3.10;;;;;;;13.10;88.63;98257.58;1717435;80;21134;-70
2022/12/11 13:50:08;;;;;;;5.10;3.27;;;;;;;13.13;88.50;98256.92;1736925;80;21094;-70
2022/12/11 13:52:35;;;;;;;5.60;3.10;;;;;;;13.12;88.33;98252.09;1727104;82;21321;-72
2022/12/11 13:55:02;;;;;;;5.50;3.03;;;;;;;13.12;88.24;98252.09;1762508;80;21226;-70
2022/12/11 13:57:29;;;;;;;5.77;3.20;;;;;;;13.15;88.13;98251.44;1736520;82;21172;-71
2022/12/11 13:59:56;;;;;;;4.93;3.17;;;;;;;13.18;87.99;98252.67;1741758;82;21822;-71
2022/12/11 14:02:27;;;;;;;6.70;2.90;;;;;;;13.16;88.00;98254.89;1726466;82;21256;-71
2022/12/11 14:05:07;;;;;;;5.70;2.85;;;;;;;13.24;87.92;98250.58;1765722;81;21318;-72
2022/12/11 14:07:37;;;;;;;5.37;3.10;;;;;;;13.27;87.66;98245.93;1726170;81;21105;-71
2022/12/11 14:10:08;;;;;;;5.43;3.00;;;;;;;13.29;87.60;98248.52;1740860;81;21324;-71
2022/12/11 14:12:35;;;;;;;5.12;3.15;;;;;;;13.31;87.44;98248.17;1714848;81;21287;-71
2022/12/11 14:15:04;;;;;;;4.33;3.00;;;;;;;13.32;86.84;98243.80;1732509;80;21119;-72
2022/12/11 14:17:33;;;;;;;5.03;3.13;;;;;;;13.32;86.84;98243.80;1736500;80;21454;-71
2022/12/11 14:20:04;;;;;;;5.87;3.30;;;;;;;13.31;86.88;98240.91;1756126;80;21278;-72
2022/12/11 14:22:31;;;;;;;4.42;2.70;;;;;;;13.18;87.19;98235.81;1746300;81;21408;-72
2022/12/11 14:25:02;;;;;;;4.57;2.97;;;;;;;13.13;87.42;98238.94;1744481;82;21671;-71
2022/12/11 14:27:29;;;;;;;4.40;3.10;;;;;;;13.14;87.43;98242.39;1752331;80;22032;-73
2022/12/11 14:29:56;;;;;;;5.17;3.47;;;;;;;13.13;87.48;98236.25;1737776;81;21827;-71
2022/12/11 14:32:33;;;;;;;4.57;2.90;;;;;;;13.15;87.41;98226.53;1739465;81;21869;-70
2022/12/11 14:35:03;;;;;;;4.83;2.97;;;;;;;13.16;87.29;98221.39;1770617;80;22003;-72
2022/12/11 14:37:30;;;;;;;4.90;2.90;;;;;;;13.16;87.28;98229.43;1742575;82;21471;-71
2022/12/11 14:40:00;;;;;;;5.40;3.17;;;;;;;13.17;87.09;98230.23;1743750;81;21391;-71
2022/12/11 14:42:31;;;;;;;5.10;3.37;;;;;;;13.16;87.02;98226.75;1765776;80;21679;-72
2022/12/11 14:45:06;;;;;;;4.63;2.87;;;;;;;13.14;87.09;98224.41;1745601;81;21402;-73
2022/12/11 14:47:40;;;;;;;5.03;3.00;;;;;;;13.12;86.99;98225.84;1727468;80;21333;-72
2022/12/11 14:50:26;;;;;;;5.53;2.93;;;;;;;13.12;86.99;98225.84;1735718;81;21494;-72
2022/12/11 14:52:58;;;;;;;5.00;3.00;;;;;;;13.11;86.84;98224.30;1732609;82;21455;-72
2022/12/11 14:55:28;;;;;;;5.58;2.90;;;;;;;13.11;86.75;98230.99;1741488;80;21275;-71
2022/12/11 14:57:58;;;;;;;5.97;3.63;;;;;;;13.12;86.54;98229.87;1770998;80;21630;-72
2022/12/11 15:00:31;;;;;;;5.63;3.43;;;;;;;13.14;86.37;98228.99;1740496;82;22295;-73
2022/12/11 15:03:08;;;;;;;4.83;3.20;;;;;;;13.11;86.27;98233.67;1744338;80;21868;-72
2022/12/11 15:05:49;;;;;;;5.43;3.30;;;;;;;13.11;86.27;98233.67;1741084;82;21993;-71
2022/12/11 15:08:23;;;;;;;5.97;4.07;;;;;;;13.17;86.06;98224.87;1764232;80;21275;-70
2022/12/11 15:11:09;;;;;;;7.13;3.90;;;;;;;13.21;85.91;98222.53;1741101;80;21517;-71
2022/12/11 15:13:41;;;;;;;5.50;3.70;;;;;;;13.24;86.07;98222.44;1739966;80;21382;-73
2022/12/11 15:16:07;;;;;;;6.40;4.05;;;;;;;13.24;86.07;98222.44;1739096;82;21880;-72
2022/12/11 15:18:36;;;;;;;5.23;3.30;;;;;;;13.28;85.66;98229.50;1741352;82;22021;-72
2022/12/11 15:21:05;;;;;;;4.57;2.80;;;;;;;13.28;85.52;98221.45;1744238;81;21448;-71
2022/12/11 15:23:45;;;;;;;4.75;2.77;;;;;;;13.26;85.27;98217.00;1733610;82;21338;-70
2022/12/11 15:26:11;;;;;;;4.87;2.83;;;;;;;13.25;85.19;98222.12;1738665;82;21112;-72
2022/12/11 15:28:38;;;;;;;4.60;2.70;;;;;;;13.24;85.13;98213.05;1744158;82;22013;-72
2022/12/11 15:31:27;;;;;;;4.30;2.40;;;;;;;13.23;84.95;98224.34;1741580;82;21811;-72
2022/12/11 15:33:55;;;;;;;5.70;2.97;;;;;;;13.21;84.79;98216.39;1741188;81;21824;-73
2022/12/11 15:36:34;;;;;;;4.73;2.50;;;;;;;13.17;84.77;98218.95;1733989;80;21403;-73
2022/12/11 15:39:04;;;;;;;4.60;2.90;;;;;;;13.15;84.69;98218.49;1742348;80;21331;-72
2022/12/11 15:41:33;;;;;;;4.80;2.77;;;;;;;13.11;84.60;98218.37;1734222;82;21805;-72
2022/12/11 15:44:02;;;;;;;5.30;3.17;;;;;;;13.11;84.48;98219.71;1719944;82;21352;-71
2022/12/11 15:46:29;;;;;;;5.27;3.70;;;;;;;13.08;84.40;98218.25;1741941;81;21365;-70
2022/12/11 15:48:56;;;;;;;5.03;3.20;;;;;;;13.08;84.46;98216.35;1746708;81;21294;-71
2022/12/11 15:51:24;;;;;;;4.30;3.03;;;;;;;13.06;84.37;98212.42;1768402;80;21319;-72
2022/12/11 15:53:51;;;;;;;5.77;3.50;;;;;;;13.06;84.37;98212.42;1742511;81;21442;-71
2022/12/11 15:56:18;;;;;;;5.37;3.73;;;;;;;13.07;84.17;98220.16;1767897;80;21203;-71
2022/12/11 15:58:46;;;;;;;5.07;3.50;;;;;;;13.06;84.09;98213.77;1746302;82;21294;-70
2022/12/11 16:01:14;;;;;;;5.83;3.43;;;;;;;13.06;84.08;98215.91;1735152;80;21419;-71
2022/12/11 16:03:41;;;;;;;6.53;3.67;;;;;;;13.05;84.09;98212.21;1749124;80;21391;-71
2022/12/11 16:06:11;;;;;;;5.93;3.60;;;;;;;13.06;84.09;98209.75;1712294;82;21431;-71
2022/12/11 16:08:41;;;;;;;6.07;3.87;;;;;;;13.06;84.04;98216.45;1743498;81;21856;-71
2022/12/11 16:11:11;;;;;;;5.93;3.93;;;;;;;13.06;83.96;98223.14;1723101;82;21364;-71
2022/12/11 16:13:39;;;;;;;6.23;3.80;;;;;;;13.05;83.90;98214.89;1745686;80;21337;-72
2022/12/11 16:16:06;;;;;;;6.20;3.77;;;;;;;13.11;83.72;98216.25;1736732;81;21246;-71
2022/12/11 16:18:32;;;;;;;5.47;3.80;;;;;;;13.11;83.72;98216.25;1738448;80;21842;-71
2022/12/11 16:21:03;;;;;;;5.87;3.97;;;;;;;13.07;83.50;98214.02;1766326;80;21382;-71
2022/12/11 16:23:30;;;;;;;7.67;4.15;;;;;;;13.04;83.54;98208.75;1635266;79;9999842;-72
2022/12/11 16:25:56;;;;;;;6.63;4.40;;;;;;;13.03;83.55;98209.06;1767553;80;20998;-72
2022/12/11 16:28:23;;;;;;;8.43;4.60;;;;;;;13.05;83.54;98209.53;1768610;80;21345;-70
2022/12/11 16:30:50;;;;;;;7.53;4.47;;;;;;;13.04;83.44;98203.39;1745110;81;22196;-71
2022/12/11 16:33:16;;;;;;;7.10;4.90;;;;;;;13.22;82.81;98206.67;1723670;82;21375;-70
2022/12/11 16:35:42;;;;;;;9.27;5.43;;;;;;;13.34;82.05;98209.41;1742132;82;21377;-71
2022/12/11 16:38:09;;;;;;;8.30;5.60;;;;;;;13.08;82.77;98207.53;1737689;81;21868;-71
2022/12/11 16:40:36;;;;;;;9.20;5.77;;;;;;;13.03;83.00;98217.91;1726331;82;21272;-71
2022/12/11 16:43:04;;;;;;;7.83;5.80;;;;;;;13.01;83.49;98213.43;1742549;80;21323;-71
2022/12/11 16:45:31;;;;;;;7.83;5.97;;;;;;;13.01;83.49;98213.43;1739956;81;21438;-71
2022/12/11 16:47:57;;;;;;;10.07;6.30;;;;;;;13.02;83.17;98206.17;1740091;80;22452;-70
2022/12/11 16:50:24;;;;;;;9.23;6.07;;;;;;;13.00;83.09;98207.08;1758047;80;21802;-71
2022/12/11 16:52:53;;;;;;;9.00;6.17;;;;;;;13.00;83.09;98211.09;1738992;82;21448;-70
2022/12/11 16:55:21;;;;;;;14.10;7.57;;;;;;;12.99;83.10;98214.30;1733672;80;21539;-71
2022/12/11 16:57:47;;;;;;;10.17;6.80;;;;;;;13.04;82.99;98216.02;1743090;80;21324;-72
2022/12/11 17:00:14;;;;;;;8.20;5.90;;;;;;;13.03;83.09;98218.44;1729782;82;21433;-71
2022/12/11 17:02:41;;;;;;;10.57;6.07;;;;;;;13.04;83.11;98211.99;1725341;80;21881;-72
2022/12/11 17:05:07;;;;;;;10.10;7.33;;;;;;;13.06;83.22;98215.91;1742902;80;21867;-71
2022/12/11 17:07:35;;;;;;;12.23;6.97;;;;;;;13.08;83.24;98216.35;1761734;81;21249;-71
2022/12/11 17:10:02;;;;;;;13.70;7.40;;;;;;;13.11;83.26;98210.33;1730475;80;21298;-71
2022/12/11 17:12:29;;;;;;;12.87;7.97;;;;;;;13.15;83.17;98219.27;1732751;82;21265;-70
2022/12/11 17:14:56;;;;;;;11.47;8.13;;;;;;;13.16;83.07;98220.05;1726086;82;21264;-70
2022/12/11 17:17:23;;;;;;;13.90;8.23;;;;;;;13.17;83.15;98220.30;1741704;80;21343;-71
2022/12/11 17:19:50;;;;;;;13.67;7.97;;;;;;;13.32;82.70;98218.34;1738006;80;21230;-70
2022/12/11 17:22:16;;;;;;;11.63;7.87;;;;;;;13.25;83.15;98218.09;1741835;81;21815;-71
2022/12/11 17:24:42;;;;;;;13.20;7.67;;;;;;;13.29;83.32;98220.37;1744372;81;21282;-70
2022/12/11 17:27:09;;;;;;;14.47;8.30;;;;;;;13.32;83.37;98204.16;1741764;82;21361;-71
2022/12/11 17:29:35;;;;;;;15.10;8.47;;;;;;;13.35;83.45;98217.67;1735109;80;21516;-71
2022/12/11 17:32:02;;;;;;;15.57;8.50;;;;;;;13.46;83.26;98223.95;1732088;80;21412;-70
2022/12/11 17:34:28;;;;;;;14.40;8.27;;;;;;;13.46;83.26;98223.95;1747700;81;21290;-70
2022/12/11 17:36:55;;;;;;;17.87;9.10;;;;;;;13.48;83.65;98218.48;1747851;81;21324;-72
2022/12/11 17:39:21;;;;;;;15.33;9.40;;;;;;;13.57;83.88;98220.52;1748300;82;21403;-70
2022/12/11 17:41:48;;;;;;;18.90;9.53;;;;;;;13.59;83.95;98218.29;1741099;81;21429;-70
2022/12/11 17:44:16;;;;;;;15.83;9.40;;;;;;;13.59;83.95;98218.29;1768004;81;21380;-72
2022/12/11 17:46:42;;;;;;;15.10;9.50;;;;;;;13.58;83.71;98214.02;1767135;80;21407;-70
2022/12/11 17:49:10;;;;;;;17.50;10.43;;;;;;;13.65;83.39;98219.39;1743919;82;21352;-70
2022/12/11 17:51:36;;;;;;;16.77;9.30;;;;;;;13.65;83.39;98219.39;1748121;80;21386;-70
2022/12/11 17:54:03;;;;;;;17.53;9.47;;;;;;;13.66;83.63;98227.13;1774629;80;21407;-70
2022/12/11 17:56:32;;;;;;;19.97;10.27;;;;;;;13.66;83.61;98225.78;1718534;82;21261;-69
2022/12/11 17:58:58;;;;;;;14.60;9.30;;;;;;;13.69;83.35;98216.27;1744534;80;21368;-69
2022/12/11 18:01:24;;;;;;;17.13;9.57;;;;;;;13.69;83.35;98216.27;1748725;80;21446;-71
2022/12/11 18:03:50;;;;;;;17.07;8.93;;;;;;;13.73;82.90;98228.69;1773208;80;21341;-69
2022/12/11 18:06:17;;;;;;;15.43;9.70;;;;;;;13.73;82.90;98228.69;1743051;82;22023;-69
2022/12/11 18:21:57;;;;;;;15.50;9.40;;;;;;;14.21;81.83;98239.74;1830172;77;22546;-69
2022/12/11 18:24:30;;;;;;;17.27;10.17;;;;;;;14.14;81.54;98245.67;1808985;79;20883;-69
2022/12/11 18:26:52;;;;;;;17.17;9.53;;;;;;;14.07;81.50;98240.09;1787983;79;21158;-69
2022/12/11 18:29:21;;;;;;;14.67;9.60;;;;;;;14.07;81.50;98246.24;1784159;78;21663;-69
2022/12/11 18:31:48;;;;;;;17.60;9.20;;;;;;;14.03;81.41;98249.94;1806627;78;21659;-69
2022/12/11 18:34:14;;;;;;;15.70;10.33;;;;;;;13.97;81.42;98251.28;1797883;79;21595;-69
2022/12/11 18:36:41;;;;;;;15.73;9.57;;;;;;;13.95;81.53;98253.51;1792158;78;21709;-69
2022/12/11 18:39:10;;;;;;;15.73;8.77;;;;;;;13.93;81.59;98251.17;1796280;78;21925;-68
2022/12/11 18:41:36;;;;;;;15.00;8.77;;;;;;;13.91;81.32;98254.73;1798587;79;21544;-68
2022/12/11 18:44:04;;;;;;;13.33;9.10;;;;;;;13.91;81.57;98257.98;1789536;79;21578;-69
2022/12/11 18:46:31;;;;;;;13.13;8.67;;;;;;;13.88;81.52;98263.45;1795548;79;22242;-68
2022/12/11 18:48:57;;;;;;;14.70;8.43;;;;;;;13.85;81.62;98265.47;1801208;79;22269;-69
2022/12/11 18:51:25;;;;;;;16.17;8.53;;;;;;;13.85;81.84;98276.20;1801815;79;22227;-68
2022/12/11 18:53:52;;;;;;;11.97;8.23;;;;;;;13.81;81.60;98280.11;1801914;79;21697;-68
2022/12/11 18:56:19;;;;;;;13.13;7.87;;;;;;;13.81;81.60;98280.11;1795314;78;21721;-68
2022/12/11 18:58:46;;;;;;;11.43;7.60;;;;;;;13.80;81.55;98275.87;1798272;79;21801;-69
2022/12/11 19:01:23;;;;;;;11.53;7.23;;;;;;;13.81;81.57;98284.13;1807411;78;21592;-68